Time;durP1;ratioP1;P1;durP2;ratioP2;P2;SDS_P1;SDS_P2;PMS_P1;PMS_P2;Temp;Humidity;BMP_temperature;BMP_pressure;BME280_temperature;BME280_humidity;BME280_pressure;Samples;Min_cycle;Max_cycle;Signal;HPM_P1;HPM_P2
2021/09/23 00:01:34;;;;;;;50.33;24.87;;;9.10;99.90;;;;;;4417497;28;657798;-70
2021/09/23 00:04:32;;;;;;;52.30;25.17;;;9.10;99.90;;;;;;4414224;28;657579;-70
2021/09/23 00:07:19;;;;;;;51.43;24.20;;;9.10;99.90;;;;;;4419577;28;657489;-70
2021/09/23 00:10:09;;;;;;;49.00;25.20;;;9.00;99.90;;;;;;4428788;28;657358;-70
2021/09/23 00:12:57;;;;;;;51.93;26.30;;;9.10;99.90;;;;;;4405929;28;657837;-70
2021/09/23 00:15:45;;;;;;;58.97;26.73;;;9.00;99.90;;;;;;4405936;28;658594;-70
2021/09/23 00:18:32;;;;;;;52.63;26.60;;;9.00;99.90;;;;;;4423166;28;657510;-70
2021/09/23 00:21:20;;;;;;;55.13;26.17;;;9.00;99.90;;;;;;4421330;28;658464;-70
2021/09/23 00:24:08;;;;;;;59.67;27.53;;;8.90;99.90;;;;;;4442469;28;657967;-70
2021/09/23 00:26:57;;;;;;;54.73;26.27;;;8.90;99.90;;;;;;4427015;28;658356;-70
2021/09/23 00:29:44;;;;;;;53.13;26.57;;;8.90;99.90;;;;;;4394325;28;657324;-70
2021/09/23 00:32:31;;;;;;;66.33;28.47;;;8.90;99.90;;;;;;4429295;28;657510;-70
2021/09/23 00:35:19;;;;;;;59.97;28.07;;;8.90;99.90;;;;;;4410214;28;658164;-70
2021/09/23 00:38:07;;;;;;;56.97;28.67;;;8.90;99.90;;;;;;4429087;28;657322;-70
2021/09/23 00:40:54;;;;;;;56.77;27.97;;;8.80;99.90;;;;;;4412278;28;657711;-71
2021/09/23 00:43:43;;;;;;;55.70;26.60;;;8.80;99.90;;;;;;4422263;28;657412;-70
2021/09/23 00:46:30;;;;;;;58.27;27.00;;;8.80;99.90;;;;;;4405262;28;657859;-70
2021/09/23 00:49:18;;;;;;;67.50;28.13;;;8.80;99.90;;;;;;4398654;28;657687;-70
2021/09/23 00:52:06;;;;;;;59.20;28.67;;;8.80;99.90;;;;;;4433355;28;658084;-70
2021/09/23 00:54:53;;;;;;;61.63;28.80;;;8.80;99.90;;;;;;4411969;28;657939;-70
2021/09/23 00:57:41;;;;;;;52.53;26.70;;;8.70;99.90;;;;;;4436587;28;657981;-70
2021/09/23 01:00:30;;;;;;;59.57;27.20;;;8.70;99.90;;;;;;4413318;28;658840;-70
2021/09/23 01:03:18;;;;;;;63.17;29.30;;;8.60;99.90;;;;;;4410842;28;658157;-70
2021/09/23 01:06:05;;;;;;;63.57;29.47;;;8.60;99.90;;;;;;4431187;28;658691;-70
2021/09/23 01:08:54;;;;;;;61.57;30.67;;;8.60;99.90;;;;;;4412921;28;658375;-70
2021/09/23 01:11:41;;;;;;;64.53;30.07;;;8.60;99.90;;;;;;4424088;28;658062;-70
2021/09/23 01:14:29;;;;;;;64.97;30.23;;;8.50;99.90;;;;;;4408484;28;657621;-70
2021/09/23 01:17:18;;;;;;;61.90;29.33;;;8.60;99.90;;;;;;4431350;28;658051;-70
2021/09/23 01:20:06;;;;;;;67.80;31.60;;;8.60;99.90;;;;;;4400299;28;657867;-70
2021/09/23 01:22:55;;;;;;;63.63;29.40;;;8.60;99.90;;;;;;4407499;28;658132;-70
2021/09/23 01:25:43;;;;;;;58.70;29.08;;;8.60;99.90;;;;;;4392120;28;657235;-70
2021/09/23 01:28:30;;;;;;;72.70;31.07;;;8.60;99.90;;;;;;4423055;28;658125;-70
2021/09/23 01:31:18;;;;;;;65.07;27.65;;;8.60;99.90;;;;;;4395455;28;657937;-70
2021/09/23 01:34:05;;;;;;;59.80;29.13;;;8.70;99.90;;;;;;4420492;28;658446;-70
2021/09/23 01:36:53;;;;;;;64.60;29.87;;;8.60;99.90;;;;;;4396093;28;658413;-70
2021/09/23 01:39:42;;;;;;;68.03;31.27;;;8.60;99.90;;;;;;4433725;28;657893;-70
2021/09/23 01:42:29;;;;;;;63.43;28.87;;;8.60;99.90;;;;;;4396562;28;658759;-71
2021/09/23 01:45:17;;;;;;;66.00;30.80;;;8.60;99.90;;;;;;4424119;28;657457;-70
2021/09/23 01:48:05;;;;;;;68.80;31.90;;;8.60;99.90;;;;;;4410812;28;658551;-70
2021/09/23 01:50:53;;;;;;;68.30;32.17;;;8.60;99.90;;;;;;4412273;28;657972;-70
2021/09/23 01:53:40;;;;;;;68.33;32.43;;;8.60;99.90;;;;;;4429835;28;658573;-70
2021/09/23 01:56:29;;;;;;;66.07;30.93;;;8.50;99.90;;;;;;4406091;28;657377;-70
2021/09/23 01:59:16;;;;;;;65.83;30.83;;;8.50;99.90;;;;;;4428414;28;657427;-70
2021/09/23 02:02:04;;;;;;;67.40;32.43;;;8.50;99.90;;;;;;4407799;28;657828;-71
2021/09/23 02:04:54;;;;;;;71.30;33.60;;;8.60;99.90;;;;;;4424873;28;657865;-70
2021/09/23 02:07:41;;;;;;;75.57;35.10;;;8.60;99.90;;;;;;4401491;28;657154;-70
2021/09/23 02:10:29;;;;;;;79.27;36.23;;;8.60;99.90;;;;;;4405139;28;659018;-70
2021/09/23 02:13:18;;;;;;;109.13;41.37;;;8.60;99.90;;;;;;4428017;28;657376;-71
2021/09/23 02:16:05;;;;;;;111.17;40.10;;;8.50;99.90;;;;;;4399231;28;659029;-70
2021/09/23 02:18:53;;;;;;;115.03;45.80;;;8.50;99.90;;;;;;4400455;28;658893;-70
2021/09/23 02:21:41;;;;;;;122.57;46.77;;;8.50;99.90;;;;;;4429150;28;660008;-70
2021/09/23 02:24:28;;;;;;;116.33;47.67;;;8.50;99.90;;;;;;4409248;28;658674;-70
2021/09/23 02:27:17;;;;;;;124.90;48.07;;;8.40;99.90;;;;;;4417516;28;659040;-70
2021/09/23 02:30:07;;;;;;;166.10;51.80;;;8.40;99.90;;;;;;4400973;28;659437;-70
2021/09/23 02:32:55;;;;;;;120.80;50.23;;;8.40;99.90;;;;;;4397669;28;659517;-70
2021/09/23 02:35:43;;;;;;;135.30;52.33;;;8.40;99.90;;;;;;4406687;28;658383;-70
2021/09/23 02:38:31;;;;;;;148.57;49.67;;;8.30;99.90;;;;;;4418875;28;659657;-70
2021/09/23 02:41:18;;;;;;;254.70;51.27;;;8.30;99.90;;;;;;4396737;28;658809;-70
2021/09/23 02:44:06;;;;;;;284.33;46.03;;;8.30;99.90;;;;;;4429369;28;659239;-70
2021/09/23 02:46:55;;;;;;;242.55;47.70;;;8.20;99.90;;;;;;4389077;28;658515;-71
2021/09/23 02:49:43;;;;;;;251.43;48.95;;;8.20;99.90;;;;;;4392225;28;658912;-70
2021/09/23 02:52:30;;;;;;;228.10;42.30;;;8.20;99.90;;;;;;4433287;28;658317;-70
2021/09/23 02:55:18;;;;;;;310.15;46.75;;;8.20;99.90;;;;;;4396059;28;658668;-70
2021/09/23 02:58:05;;;;;;;271.23;46.93;;;8.20;99.90;;;;;;4423640;28;659589;-72
2021/09/23 03:00:53;;;;;;;351.37;48.50;;;8.20;99.90;;;;;;4392185;28;659216;-70
2021/09/23 03:03:42;;;;;;;369.07;42.30;;;8.20;99.90;;;;;;4433081;28;659048;-70
2021/09/23 03:06:29;;;;;;;388.63;42.27;;;8.20;99.90;;;;;;4398486;28;659353;-70
2021/09/23 03:09:17;;;;;;;348.50;43.13;;;8.20;99.90;;;;;;4426472;28;659053;-70
2021/09/23 03:12:05;;;;;;;381.70;47.90;;;8.20;99.90;;;;;;4390423;28;659744;-70
2021/09/23 03:14:53;;;;;;;283.47;42.87;;;8.20;99.90;;;;;;4411194;28;658889;-70
2021/09/23 03:17:40;;;;;;;267.77;50.13;;;8.20;99.90;;;;;;4423133;28;658866;-70
2021/09/23 03:20:29;;;;;;;141.17;51.57;;;8.20;99.90;;;;;;4406737;28;659048;-70
2021/09/23 03:23:17;;;;;;;133.82;47.30;;;8.20;99.90;;;;;;4420734;28;658527;-70
2021/09/23 03:26:05;;;;;;;153.37;50.00;;;8.20;99.90;;;;;;4403031;28;659764;-71
2021/09/23 03:28:53;;;;;;;147.37;52.60;;;8.30;99.90;;;;;;4410679;28;658648;-70
2021/09/23 03:31:41;;;;;;;170.27;51.97;;;8.30;99.90;;;;;;4424063;28;658597;-70
2021/09/23 03:34:29;;;;;;;194.13;48.70;;;8.30;99.90;;;;;;4404597;28;658687;-70
2021/09/23 03:37:18;;;;;;;148.27;49.60;;;8.30;99.90;;;;;;4420304;28;658578;-70
2021/09/23 03:40:07;;;;;;;156.50;52.17;;;8.30;99.90;;;;;;4400214;28;658784;-71
2021/09/23 03:42:54;;;;;;;141.50;36.20;;;8.40;99.90;;;;;;4404451;28;658904;-71
2021/09/23 03:45:42;;;;;;;197.93;43.60;;;8.40;99.90;;;;;;4423365;28;658785;-71
2021/09/23 03:48:29;;;;;;;161.00;46.33;;;8.40;99.90;;;;;;4401682;28;658994;-70
2021/09/23 03:51:17;;;;;;;148.37;42.90;;;8.40;99.90;;;;;;4426653;28;658693;-70
2021/09/23 03:54:05;;;;;;;170.97;42.13;;;8.40;99.90;;;;;;4400142;28;658623;-70
2021/09/23 03:56:53;;;;;;;165.73;41.00;;;8.40;99.90;;;;;;4391792;28;659027;-70
2021/09/23 03:59:40;;;;;;;142.10;40.13;;;8.40;99.90;;;;;;4423246;28;659240;-70
2021/09/23 04:02:28;;;;;;;88.60;35.20;;;8.40;99.90;;;;;;4404149;28;658996;-71
2021/09/23 04:05:15;;;;;;;125.37;39.77;;;8.40;99.90;;;;;;4430549;28;658710;-70
2021/09/23 04:08:04;;;;;;;163.10;42.47;;;8.40;99.90;;;;;;4402781;28;658812;-71
2021/09/23 04:10:53;;;;;;;132.95;43.85;;;8.50;99.90;;;;;;4419293;28;659017;-71
2021/09/23 04:13:40;;;;;;;151.03;43.20;;;8.50;99.90;;;;;;4401306;28;658474;-70
2021/09/23 04:16:28;;;;;;;158.77;47.00;;;8.50;99.90;;;;;;4408792;28;658275;-71
2021/09/23 04:19:15;;;;;;;187.77;48.40;;;8.50;99.90;;;;;;4426470;28;659656;-70
2021/09/23 04:22:03;;;;;;;128.00;46.17;;;8.50;99.90;;;;;;4407471;28;658466;-70
2021/09/23 04:24:51;;;;;;;147.17;48.47;;;8.50;99.90;;;;;;4428322;28;660452;-70
2021/09/23 04:27:40;;;;;;;118.57;43.83;;;8.60;99.90;;;;;;4407419;28;660081;-70
2021/09/23 04:30:28;;;;;;;95.33;41.30;;;8.60;99.90;;;;;;4410751;28;658919;-70
2021/09/23 04:33:15;;;;;;;107.93;40.60;;;8.60;99.90;;;;;;4435590;28;658364;-71
2021/09/23 04:36:03;;;;;;;95.00;40.67;;;8.60;99.90;;;;;;4408347;28;659105;-71
2021/09/23 04:38:50;;;;;;;83.87;36.83;;;8.60;99.90;;;;;;4430421;28;658162;-71
2021/09/23 04:41:38;;;;;;;80.50;37.40;;;8.60;99.90;;;;;;4412366;28;658835;-71
2021/09/23 04:44:48;;;;;;;79.20;36.13;;;8.60;99.90;;;;;;4435539;28;658217;-70
2021/09/23 04:47:36;;;;;;;71.83;34.07;;;8.70;99.90;;;;;;4409365;28;657789;-71
2021/09/23 04:50:23;;;;;;;81.47;37.20;;;8.70;99.90;;;;;;4413085;28;657423;-70
2021/09/23 04:53:11;;;;;;;73.40;34.37;;;8.60;99.90;;;;;;4430935;28;658354;-71
2021/09/23 04:55:58;;;;;;;75.90;36.13;;;8.60;99.90;;;;;;4412327;28;658418;-70
2021/09/23 04:58:46;;;;;;;86.77;39.00;;;8.60;99.90;;;;;;4432134;28;658863;-70
2021/09/23 05:01:35;;;;;;;69.53;34.43;;;8.70;99.90;;;;;;4408780;28;658085;-70
2021/09/23 05:04:23;;;;;;;67.30;34.13;;;8.70;99.90;;;;;;4416017;28;657917;-70
2021/09/23 05:07:10;;;;;;;66.33;33.83;;;8.70;99.90;;;;;;4435302;28;658276;-70
2021/09/23 05:09:58;;;;;;;66.27;33.37;;;8.80;99.90;;;;;;4404962;28;657737;-70
2021/09/23 05:12:45;;;;;;;74.73;35.17;;;8.80;99.90;;;;;;4427356;28;658189;-71
2021/09/23 05:15:33;;;;;;;66.53;32.75;;;8.90;99.90;;;;;;4393355;28;657704;-71
2021/09/23 05:18:22;;;;;;;61.03;31.60;;;8.90;99.90;;;;;;4414860;28;658167;-70
2021/09/23 05:21:09;;;;;;;57.40;30.10;;;9.00;99.90;;;;;;4397348;28;658896;-70
2021/09/23 05:23:57;;;;;;;60.53;29.53;;;9.00;99.90;;;;;;4409872;28;657939;-70
2021/09/23 05:26:45;;;;;;;57.07;28.10;;;9.00;99.90;;;;;;4396396;28;658584;-70
2021/09/23 05:29:33;;;;;;;56.70;29.67;;;9.00;99.90;;;;;;4407857;28;657571;-70
2021/09/23 05:32:20;;;;;;;51.67;25.57;;;9.10;99.90;;;;;;4415540;28;658407;-70
2021/09/23 05:35:10;;;;;;;53.23;28.37;;;9.10;99.90;;;;;;4399112;28;657600;-71
2021/09/23 05:37:58;;;;;;;54.93;28.93;;;9.00;99.90;;;;;;4394383;28;657645;-71
2021/09/23 05:40:45;;;;;;;53.37;28.77;;;9.10;99.90;;;;;;4414441;28;658592;-71
2021/09/23 05:43:33;;;;;;;53.27;27.27;;;9.00;99.90;;;;;;4403711;28;657863;-70
2021/09/23 05:46:20;;;;;;;55.23;28.47;;;9.00;99.90;;;;;;4423421;28;658175;-70
2021/09/23 05:49:08;;;;;;;57.93;28.60;;;9.10;99.90;;;;;;4400470;28;657398;-70
2021/09/23 05:51:59;;;;;;;53.00;27.27;;;9.10;99.90;;;;;;4414167;28;656918;-70
2021/09/23 05:54:46;;;;;;;54.27;27.87;;;9.20;99.90;;;;;;4430521;28;658042;-68
2021/09/23 05:57:34;;;;;;;50.50;25.60;;;9.20;99.90;;;;;;4410777;28;657779;-68
2021/09/23 06:00:22;;;;;;;49.33;25.03;;;9.30;99.90;;;;;;4422983;28;658020;-68
2021/09/23 06:03:10;;;;;;;39.80;18.57;;;9.30;99.90;;;;;;4412562;28;658199;-68
2021/09/23 06:05:58;;;;;;;44.83;22.27;;;9.40;99.90;;;;;;4431310;28;657829;-68
2021/09/23 06:08:47;;;;;;;41.10;20.90;;;9.40;99.90;;;;;;4412643;28;659128;-68
2021/09/23 06:11:37;;;;;;;37.20;19.83;;;9.50;99.90;;;;;;4395679;28;658595;-68
2021/09/23 06:14:27;;;;;;;38.40;18.87;;;9.50;99.90;;;;;;4395660;28;657897;-68
2021/09/23 06:17:15;;;;;;;36.67;19.23;;;9.50;99.90;;;;;;4399845;28;658733;-68
2021/09/23 06:20:03;;;;;;;38.23;18.93;;;9.50;99.90;;;;;;4412787;28;657594;-68
2021/09/23 06:22:51;;;;;;;35.80;17.83;;;9.60;99.90;;;;;;4434919;28;658067;-68
2021/09/23 06:25:40;;;;;;;33.27;16.93;;;9.60;99.90;;;;;;4412282;28;657291;-68
2021/09/23 06:28:29;;;;;;;29.75;16.90;;;9.70;99.90;;;;;;4416138;28;658139;-68
2021/09/23 06:31:17;;;;;;;28.57;15.90;;;9.80;99.90;;;;;;4430916;28;657807;-68
2021/09/23 06:34:04;;;;;;;28.53;16.07;;;10.00;99.90;;;;;;4408171;28;659468;-68
2021/09/23 06:36:52;;;;;;;28.07;15.80;;;10.00;99.90;;;;;;4430354;28;658679;-68
2021/09/23 06:39:40;;;;;;;29.77;14.93;;;10.10;99.90;;;;;;4411040;28;658707;-68
2021/09/23 06:42:29;;;;;;;22.53;14.50;;;10.20;99.90;;;;;;4420438;28;659133;-68
2021/09/23 06:45:17;;;;;;;24.20;13.63;;;10.30;99.90;;;;;;4425942;28;658286;-68
2021/09/23 06:48:07;;;;;;;26.63;14.90;;;10.50;99.90;;;;;;4402410;28;660374;-68
2021/09/23 06:50:55;;;;;;;27.10;13.77;;;10.60;99.90;;;;;;4400644;28;659323;-68
2021/09/23 06:53:43;;;;;;;23.60;13.90;;;10.70;99.90;;;;;;4409832;28;659985;-68
2021/09/23 06:56:31;;;;;;;20.13;11.93;;;10.60;99.90;;;;;;4429897;28;659562;-67
2021/09/23 06:59:20;;;;;;;23.07;11.83;;;10.80;99.90;;;;;;4407547;28;658775;-68
2021/09/23 07:02:07;;;;;;;23.73;11.37;;;10.90;99.90;;;;;;4427550;28;658708;-68
2021/09/23 07:04:55;;;;;;;22.53;11.57;;;10.90;99.90;;;;;;4406675;28;660466;-68
2021/09/23 07:07:43;;;;;;;23.47;11.10;;;11.10;99.90;;;;;;4417090;28;660482;-68
2021/09/23 07:10:30;;;;;;;27.10;11.97;;;11.30;99.90;;;;;;4444959;28;658706;-68
2021/09/23 07:13:18;;;;;;;21.07;10.87;;;11.50;99.90;;;;;;4409336;28;658671;-68
2021/09/23 07:16:07;;;;;;;21.00;10.17;;;11.80;99.90;;;;;;4416730;28;659847;-68
2021/09/23 07:18:55;;;;;;;19.40;9.30;;;12.00;99.90;;;;;;4385863;28;659327;-68
2021/09/23 07:21:42;;;;;;;19.87;10.13;;;12.00;99.90;;;;;;4421296;28;657232;-68
2021/09/23 07:24:30;;;;;;;18.37;10.10;;;12.20;99.90;;;;;;4403959;28;659322;-68
2021/09/23 07:27:18;;;;;;;24.17;11.23;;;12.30;99.90;;;;;;4419250;28;658355;-68
2021/09/23 07:30:06;;;;;;;18.23;9.80;;;12.20;99.90;;;;;;4428919;28;659261;-68
2021/09/23 07:32:55;;;;;;;16.33;8.77;;;12.20;99.90;;;;;;4405102;28;657997;-68
2021/09/23 07:35:43;;;;;;;15.60;8.23;;;12.20;99.90;;;;;;4404958;28;658300;-68
2021/09/23 07:38:30;;;;;;;21.03;8.73;;;12.20;99.90;;;;;;4427376;28;657830;-68
2021/09/23 07:41:18;;;;;;;17.33;8.97;;;12.20;99.90;;;;;;4408704;28;658123;-68
2021/09/23 07:44:06;;;;;;;12.30;6.40;;;12.40;99.90;;;;;;4425649;28;658270;-68
2021/09/23 07:46:55;;;;;;;11.67;5.23;;;12.70;99.90;;;;;;4405771;28;658186;-68
2021/09/23 07:49:43;;;;;;;12.13;6.33;;;12.90;99.90;;;;;;4424357;28;657973;-68
2021/09/23 07:52:31;;;;;;;13.33;5.17;;;13.10;99.90;;;;;;4398261;28;657487;-68
2021/09/23 07:55:19;;;;;;;14.43;5.10;;;13.10;87.10;;;;;;4410863;28;657456;-68
2021/09/23 07:58:06;;;;;;;10.23;4.90;;;13.10;97.10;;;;;;4423975;28;657862;-68
2021/09/23 08:00:54;;;;;;;14.63;4.80;;;13.10;99.90;;;;;;4409939;28;657970;-68
2021/09/23 08:03:41;;;;;;;12.87;4.30;;;13.20;68.40;;;;;;4429237;28;657863;-68
2021/09/23 08:06:30;;;;;;;13.77;5.03;;;13.00;68.60;;;;;;4413014;28;657511;-68
2021/09/23 08:09:18;;;;;;;6.53;4.17;;;13.00;93.60;;;;;;4409615;28;657867;-68
2021/09/23 08:12:06;;;;;;;11.80;4.87;;;12.90;79.80;;;;;;4421209;28;657034;-67
2021/09/23 08:14:54;;;;;;;10.87;4.33;;;12.90;91.60;;;;;;4408301;28;657620;-68
2021/09/23 08:17:41;;;;;;;14.07;4.30;;;13.00;73.00;;;;;;4430226;28;658037;-68
2021/09/23 08:20:29;;;;;;;8.50;3.47;;;13.10;69.50;;;;;;4412047;28;657239;-67
2021/09/23 08:23:18;;;;;;;10.40;3.80;;;13.00;71.20;;;;;;4423507;28;657326;-68
2021/09/23 08:26:06;;;;;;;8.50;3.10;;;12.90;86.90;;;;;;4402290;28;657977;-68
2021/09/23 08:28:54;;;;;;;11.13;4.00;;;12.90;63.70;;;;;;4406536;28;657127;-68
2021/09/23 08:31:41;;;;;;;7.63;3.73;;;12.90;65.50;;;;;;4419493;28;657157;-67
2021/09/23 08:34:29;;;;;;;9.20;3.43;;;12.90;65.70;;;;;;4408419;28;657051;-68
2021/09/23 08:37:17;;;;;;;10.83;3.80;;;13.00;69.90;;;;;;4423198;28;656695;-68
2021/09/23 08:40:10;;;;;;;10.20;4.07;;;13.20;80.30;;;;;;4403457;28;658644;-68
2021/09/23 08:42:58;;;;;;;7.63;2.87;;;13.20;47.50;;;;;;4388384;28;657576;-68
2021/09/23 08:45:45;;;;;;;11.73;4.10;;;13.30;35.50;;;;;;4429496;28;657342;-68
2021/09/23 08:48:33;;;;;;;9.30;3.80;;;13.40;61.70;;;;;;4409517;28;657591;-68
2021/09/23 08:51:20;;;;;;;11.27;3.67;;;13.60;45.80;;;;;;4432726;28;657730;-67
2021/09/23 08:54:08;;;;;;;10.87;4.13;;;13.60;22.90;;;;;;4401208;28;657832;-68
2021/09/23 08:57:01;;;;;;;8.27;4.03;;;13.70;53.40;;;;;;4427773;28;657743;-68
2021/09/23 08:59:49;;;;;;;12.77;4.30;;;14.00;19.90;;;;;;4407269;28;657016;-68
2021/09/23 09:02:36;;;;;;;12.27;4.23;;;14.20;28.50;;;;;;4428815;28;657780;-68
2021/09/23 09:05:24;;;;;;;14.93;4.07;;;14.10;29.80;;;;;;4406139;28;657486;-68
2021/09/23 09:08:13;;;;;;;12.17;4.20;;;14.40;13.80;;;;;;4422545;28;658004;-67
2021/09/23 09:11:02;;;;;;;12.40;3.93;;;14.30;20.80;;;;;;4408054;28;658619;-68
2021/09/23 09:13:53;;;;;;;8.03;3.53;;;14.20;17.40;;;;;;4407283;28;658632;-68
2021/09/23 09:16:40;;;;;;;12.20;3.50;;;14.10;24.50;;;;;;4400773;28;657561;-67
2021/09/23 09:19:43;;;;;;;9.50;3.30;;;13.90;19.70;;;;;;4401147;28;657548;-68
2021/09/23 09:22:31;;;;;;;17.07;3.90;;;13.90;23.30;;;;;;4383449;28;657104;-67
2021/09/23 09:25:19;;;;;;;15.88;4.10;;;14.20;19.90;;;;;;4404809;28;657943;-68
2021/09/23 09:28:07;;;;;;;11.30;4.20;;;14.20;29.50;;;;;;4425133;28;658292;-67
2021/09/23 09:30:56;;;;;;;9.97;3.37;;;14.10;26.80;;;;;;4404595;28;659260;-68
2021/09/23 09:33:45;;;;;;;13.03;3.47;;;14.10;13.60;;;;;;4400669;28;658963;-68
2021/09/23 09:36:34;;;;;;;14.23;3.83;;;14.10;20.40;;;;;;4399346;28;657484;-68
2021/09/23 09:39:23;;;;;;;12.53;3.40;;;14.10;15.60;;;;;;4420296;28;658405;-68
2021/09/23 09:42:11;;;;;;;11.27;3.20;;;14.30;22.80;;;;;;4396401;28;657861;-67
2021/09/23 09:44:58;;;;;;;14.50;3.50;;;14.30;17.90;;;;;;4402745;28;657638;-68
2021/09/23 09:47:53;;;;;;;9.83;3.20;;;14.20;16.20;;;;;;4420099;28;657807;-69
2021/09/23 09:50:42;;;;;;;12.00;3.80;;;14.10;14.80;;;;;;4403034;28;657026;-67
2021/09/23 09:53:29;;;;;;;17.40;3.97;;;13.90;27.60;;;;;;4405691;28;658445;-67
2021/09/23 09:56:21;;;;;;;14.87;3.80;;;13.90;31.90;;;;;;4420499;28;657877;-67
2021/09/23 09:59:16;;;;;;;14.57;3.77;;;13.90;33.50;;;;;;4376927;28;657983;-67
2021/09/23 10:02:04;;;;;;;13.87;4.00;;;13.90;31.20;;;;;;4365279;28;658722;-68
2021/09/23 10:04:54;;;;;;;15.80;3.47;;;14.10;28.80;;;;;;4427199;28;657801;-68
2021/09/23 10:07:44;;;;;;;12.70;3.80;;;14.30;26.00;;;;;;4402805;28;657522;-68
2021/09/23 10:10:32;;;;;;;10.33;3.70;;;14.30;25.70;;;;;;4404148;28;657482;-67
2021/09/23 10:13:20;;;;;;;17.43;3.93;;;14.50;12.30;;;;;;4405186;28;658284;-68
2021/09/23 10:16:08;;;;;;;15.13;4.40;;;14.60;29.60;;;;;;4421023;28;658147;-68
2021/09/23 10:18:56;;;;;;;14.73;4.50;;;15.00;17.80;;;;;;4422239;28;658355;-68
2021/09/23 10:21:45;;;;;;;14.37;3.90;;;15.30;1.00;;;;;;4406752;28;657546;-67
2021/09/23 10:24:33;;;;;;;10.37;4.27;;;15.40;99.90;;;;;;4415743;28;656863;-68
2021/09/23 10:30:27;;;;;;;13.17;4.10;;;16.20;1.00;;;;;;4401784;28;657721;-68
2021/09/23 10:33:15;;;;;;;14.23;4.47;;;15.80;99.90;;;;;;4406486;28;656610;-67
2021/09/23 10:36:03;;;;;;;18.57;5.07;;;15.50;99.90;;;;;;4402948;28;658541;-68
2021/09/23 10:38:52;;;;;;;14.83;4.70;;;15.40;99.90;;;;;;4425926;28;657676;-67
2021/09/23 10:41:42;;;;;;;13.40;4.67;;;15.00;1.00;;;;;;4407566;28;657845;-67
2021/09/23 10:44:30;;;;;;;15.13;4.50;;;14.90;1.00;;;;;;4408213;28;656863;-68
2021/09/23 10:47:25;;;;;;;12.25;4.00;;;14.90;1.00;;;;;;4410000;28;656666;-68
2021/09/23 10:50:13;;;;;;;21.20;6.23;;;14.70;1.00;;;;;;4397569;28;656910;-68
2021/09/23 10:53:00;;;;;;;12.87;4.87;;;14.70;65.00;;;;;;4418191;28;656812;-68
2021/09/23 10:55:49;;;;;;;11.80;4.80;;;14.70;37.00;;;;;;4410614;28;657571;-68
2021/09/23 10:58:39;;;;;;;14.83;3.90;;;14.60;99.90;;;;;;4430775;28;657701;-68
2021/09/23 11:01:29;;;;;;;12.47;4.97;;;14.50;59.30;;;;;;4402994;28;658029;-68
2021/09/23 11:04:17;;;;;;;10.60;4.73;;;14.50;99.90;;;;;;4404881;28;657412;-68
2021/09/23 11:07:04;;;;;;;14.93;4.90;;;14.70;99.90;;;;;;4401726;28;657549;-67
2021/09/23 11:10:13;;;;;;;14.23;4.70;;;14.60;99.90;;;;;;4425571;28;657478;-67
2021/09/23 11:13:02;;;;;;;13.33;5.90;;;14.50;99.90;;;;;;4402559;28;657922;-67
2021/09/23 11:15:50;;;;;;;15.37;5.90;;;14.40;99.90;;;;;;4403116;28;657905;-68
2021/09/23 11:18:38;;;;;;;15.47;6.07;;;14.40;99.90;;;;;;4405288;28;657489;-69
2021/09/23 11:21:26;;;;;;;14.30;6.20;;;14.60;99.90;;;;;;4431350;28;658258;-68
2021/09/23 11:24:13;;;;;;;16.37;5.83;;;14.70;1.00;;;;;;4404029;28;657655;-68
2021/09/23 11:27:01;;;;;;;11.50;5.03;;;14.70;99.90;;;;;;4421304;28;657522;-68
2021/09/23 11:29:50;;;;;;;16.10;6.07;;;14.90;99.90;;;;;;4404082;28;658764;-68
2021/09/23 11:32:51;;;;;;;17.53;6.40;;;15.00;99.90;;;;;;4413577;28;657956;-68
2021/09/23 11:35:39;;;;;;;17.03;5.97;;;15.20;99.90;;;;;;4381685;28;657760;-68
2021/09/23 11:38:27;;;;;;;14.90;5.60;;;15.30;1.00;;;;;;4421013;28;657045;-68
2021/09/23 11:41:15;;;;;;;15.63;6.50;;;15.10;1.00;;;;;;4404286;28;658138;-68
2021/09/23 11:44:03;;;;;;;14.13;6.23;;;15.10;1.00;;;;;;4407495;28;656351;-69
2021/09/23 11:46:58;;;;;;;13.33;6.03;;;15.30;35.60;;;;;;4423378;28;656768;-68
2021/09/23 11:49:50;;;;;;;9.83;5.90;;;15.40;1.00;;;;;;4398445;28;658464;-68
2021/09/23 11:52:39;;;;;;;12.37;5.73;;;15.50;1.00;;;;;;4403039;28;655416;-67
2021/09/23 11:55:27;;;;;;;12.53;5.60;;;15.40;1.00;;;;;;4403490;28;656551;-67
2021/09/23 11:58:15;;;;;;;13.73;5.27;;;15.40;1.00;;;;;;4399433;28;657359;-68
2021/09/23 12:01:03;;;;;;;13.13;5.47;;;15.40;1.00;;;;;;4399601;28;656561;-69
2021/09/23 12:03:52;;;;;;;14.03;5.73;;;15.60;1.00;;;;;;4427062;28;657917;-68
2021/09/23 12:06:40;;;;;;;20.03;6.40;;;15.70;1.00;;;;;;4406394;28;657142;-68
2021/09/23 12:09:28;;;;;;;10.20;5.03;;;15.80;99.90;;;;;;4409420;28;656901;-68
2021/09/23 12:12:16;;;;;;;12.20;5.80;;;15.80;99.90;;;;;;4426927;28;658016;-68
2021/09/23 12:15:04;;;;;;;13.23;6.23;;;15.80;99.90;;;;;;4390263;28;657891;-68
2021/09/23 12:17:58;;;;;;;10.57;4.60;;;15.90;99.90;;;;;;4427302;28;658265;-68
2021/09/23 12:20:49;;;;;;;10.37;5.87;;;15.80;99.90;;;;;;4397529;28;658455;-68
2021/09/23 12:23:38;;;;;;;12.17;5.80;;;16.00;99.90;;;;;;4404535;28;657821;-68
2021/09/23 12:26:26;;;;;;;15.67;5.50;;;16.00;99.90;;;;;;4401258;28;658435;-67
2021/09/23 12:29:20;;;;;;;10.60;5.87;;;16.10;99.90;;;;;;4404816;28;658020;-68
2021/09/23 12:32:09;;;;;;;10.33;5.53;;;16.00;92.30;;;;;;4392217;28;657938;-68
2021/09/23 12:34:56;;;;;;;11.93;5.67;;;16.10;99.90;;;;;;4426353;28;657237;-68
2021/09/23 12:37:46;;;;;;;10.67;5.90;;;16.00;99.90;;;;;;4406407;28;657480;-68
2021/09/23 12:40:34;;;;;;;12.03;6.27;;;16.00;99.90;;;;;;4405905;28;657625;-67
2021/09/23 12:43:22;;;;;;;9.83;5.37;;;16.30;84.50;;;;;;4422160;28;658483;-67
2021/09/23 12:46:11;;;;;;;9.33;5.00;;;16.40;80.30;;;;;;4400022;28;657499;-68
2021/09/23 12:49:12;;;;;;;14.30;6.20;;;16.50;1.00;;;;;;4403535;28;656698;-68
2021/09/23 12:52:14;;;;;;;17.00;7.20;;;16.60;1.00;;;;;;4375371;28;657942;-67
2021/09/23 12:55:05;;;;;;;13.97;6.30;;;16.70;1.00;;;;;;4407965;28;656593;-68
2021/09/23 12:57:54;;;;;;;16.13;6.90;;;16.90;1.00;;;;;;4403742;28;656564;-68
2021/09/23 13:00:41;;;;;;;16.77;6.37;;;17.50;99.90;;;;;;4422592;28;656669;-68
2021/09/23 13:03:31;;;;;;;12.53;5.93;;;18.10;99.90;;;;;;4409732;28;659126;-67
2021/09/23 13:06:19;;;;;;;10.17;6.60;;;18.00;99.90;;;;;;4411582;28;657932;-68
2021/09/23 13:09:08;;;;;;;13.33;6.60;;;17.30;99.90;;;;;;4424858;28;658319;-67
2021/09/23 13:12:15;;;;;;;12.23;5.40;;;17.20;1.00;;;;;;4403396;28;657329;-68
2021/09/23 13:15:21;;;;;;;12.10;6.80;;;17.00;1.00;;;;;;4391323;28;657586;-69
2021/09/23 13:18:10;;;;;;;14.80;6.77;;;16.80;1.00;;;;;;4379813;28;656807;-68
2021/09/23 13:20:59;;;;;;;17.33;8.20;;;17.50;1.00;;;;;;4415825;28;656685;-67
2021/09/23 13:23:46;;;;;;;15.77;7.53;;;18.00;1.00;;;;;;4412824;28;657549;-68
2021/09/23 13:26:34;;;;;;;10.87;4.90;;;18.00;99.90;;;;;;4398466;28;656653;-68
2021/09/23 13:29:23;;;;;;;17.07;7.17;;;17.80;99.90;;;;;;4423293;28;657900;-68
2021/09/23 13:32:12;;;;;;;14.47;6.87;;;18.20;99.90;;;;;;4395419;28;657648;-68
2021/09/23 13:34:59;;;;;;;12.13;7.40;;;18.30;43.10;;;;;;4398675;28;657781;-67
2021/09/23 13:37:47;;;;;;;13.63;7.67;;;17.70;99.90;;;;;;4420588;28;657341;-67
2021/09/23 13:40:35;;;;;;;15.07;8.03;;;17.40;99.90;;;;;;4399372;28;658517;-67
2021/09/23 13:43:23;;;;;;;16.13;7.70;;;17.20;99.90;;;;;;4405998;28;657474;-69
2021/09/23 13:46:12;;;;;;;16.27;7.83;;;16.50;1.00;;;;;;4420643;28;658470;-67
2021/09/23 13:49:00;;;;;;;14.13;8.23;;;16.30;1.00;;;;;;4406561;28;658279;-68
2021/09/23 13:51:48;;;;;;;13.87;8.03;;;16.00;39.10;;;;;;4418342;28;657647;-67
2021/09/23 13:54:35;;;;;;;13.13;6.90;;;15.90;99.90;;;;;;4422572;28;658089;-68
2021/09/23 13:57:23;;;;;;;10.67;6.87;;;15.80;99.90;;;;;;4407647;28;657733;-68
2021/09/23 14:00:13;;;;;;;15.20;6.73;;;15.70;1.00;;;;;;4414438;28;658683;-68
2021/09/23 14:03:02;;;;;;;14.00;7.47;;;15.70;1.00;;;;;;4394952;28;656633;-67
2021/09/23 14:05:50;;;;;;;14.33;7.87;;;15.60;1.00;;;;;;4402085;28;657226;-67
2021/09/23 14:08:38;;;;;;;14.70;7.80;;;15.60;32.40;;;;;;4413841;28;656536;-67
2021/09/23 14:11:25;;;;;;;16.70;8.63;;;15.50;99.90;;;;;;4419000;28;658076;-68
2021/09/23 14:14:13;;;;;;;14.83;7.73;;;15.40;99.90;;;;;;4397420;28;658002;-68
2021/09/23 14:17:01;;;;;;;14.90;8.20;;;15.40;1.00;;;;;;4416530;28;658082;-67